createdAt,value
2023-04-14T00:00:55.800Z,8.49
2023-04-14T00:03:32.989Z,8.47
2023-04-14T00:08:13.368Z,8.47
2023-04-14T00:10:42.974Z,8.43
2023-04-14T00:13:11.304Z,8.40
2023-04-14T00:15:41.543Z,8.38
2023-04-14T00:18:12.155Z,8.37
2023-04-14T00:20:40.471Z,8.35
2023-04-14T00:23:11.430Z,8.34
2023-04-14T00:25:40.042Z,8.31
2023-04-14T00:28:08.455Z,8.30
2023-04-14T00:30:40.160Z,8.30
2023-04-14T00:33:09.882Z,8.29
2023-04-14T00:35:37.943Z,8.28
2023-04-14T00:38:06.483Z,8.27
2023-04-14T00:40:35.078Z,8.24
2023-04-14T00:43:04.272Z,8.21
2023-04-14T00:45:32.633Z,8.17
2023-04-14T00:48:00.781Z,8.15
2023-04-14T00:50:28.961Z,8.14
2023-04-14T00:52:57.739Z,8.12
2023-04-14T00:55:26.574Z,8.08
2023-04-14T00:57:55.054Z,8.05
2023-04-14T01:00:23.484Z,8.02
2023-04-14T01:02:54.020Z,7.98
2023-04-14T01:05:23.261Z,7.95
2023-04-14T01:07:51.882Z,7.93
2023-04-14T01:10:20.052Z,7.93
2023-04-14T01:13:03.860Z,7.91
2023-04-14T01:15:47.649Z,7.89
2023-04-14T01:18:29.265Z,7.88
2023-04-14T01:21:13.533Z,7.87
2023-04-14T01:23:42.773Z,7.86
2023-04-14T01:26:30.340Z,7.86
2023-04-14T01:29:01.753Z,7.87
2023-04-14T01:31:49.508Z,7.90
2023-04-14T01:34:21.070Z,7.89
2023-04-14T01:36:56.777Z,7.87
2023-04-14T01:39:28.523Z,7.87
2023-04-14T01:42:02.215Z,7.88
2023-04-14T01:44:30.883Z,7.88
2023-04-14T01:47:01.582Z,7.88
2023-04-14T01:49:30.732Z,7.87
2023-04-14T01:52:01.215Z,7.86
2023-04-14T01:54:30.087Z,7.86
2023-04-14T01:56:58.373Z,7.85
2023-04-14T01:59:26.523Z,7.83
2023-04-14T02:01:54.655Z,7.83
2023-04-14T02:04:23.388Z,7.82
2023-04-14T02:06:52.688Z,7.80
2023-04-14T02:09:21.835Z,7.78
2023-04-14T02:11:50.650Z,7.77
2023-04-14T02:14:18.967Z,7.77
2023-04-14T02:16:47.746Z,7.75
2023-04-14T02:19:17.625Z,7.73
2023-04-14T02:21:46.743Z,7.71
2023-04-14T02:24:14.882Z,7.68
2023-04-14T02:26:56.253Z,7.67
2023-04-14T02:29:25.505Z,7.66
2023-04-14T02:32:00.175Z,7.64
2023-04-14T02:34:38.005Z,7.62
2023-04-14T02:37:09.471Z,7.60
2023-04-14T02:39:40.654Z,7.58
2023-04-14T02:42:13.876Z,7.56
2023-04-14T02:44:49.409Z,7.54
2023-04-14T02:47:35.455Z,7.52
2023-04-14T02:50:05.094Z,7.49
2023-04-14T02:52:34.043Z,7.48
2023-04-14T02:55:06.578Z,7.49
2023-04-14T02:57:35.670Z,7.49
2023-04-14T03:00:06.330Z,7.47
2023-04-14T03:02:39.613Z,7.45
2023-04-14T03:05:09.628Z,7.44
2023-04-14T03:07:47.657Z,7.44
2023-04-14T03:10:16.897Z,7.44
2023-04-14T03:12:49.578Z,7.44
2023-04-14T03:15:18.744Z,7.45
2023-04-14T03:17:48.849Z,7.44
2023-04-14T03:20:20.291Z,7.42
2023-04-14T03:23:05.496Z,7.40
2023-04-14T03:25:38.293Z,7.38
2023-04-14T03:28:10.830Z,7.38
2023-04-14T03:30:42.531Z,7.37
2023-04-14T03:33:13.156Z,7.35
2023-04-14T03:35:41.952Z,7.34
2023-04-14T03:38:11.238Z,7.33
2023-04-14T03:40:42.437Z,7.33
2023-04-14T03:43:12.481Z,7.33
2023-04-14T03:45:41.610Z,7.34
2023-04-14T03:48:12.727Z,7.33
2023-04-14T03:50:46.538Z,7.31
2023-04-14T03:53:15.156Z,7.31
2023-04-14T03:55:44.932Z,7.31
2023-04-14T03:58:13.854Z,7.31
2023-04-14T04:00:42.437Z,7.30
2023-04-14T04:03:11.033Z,7.29
2023-04-14T04:05:42.305Z,7.29
2023-04-14T04:08:10.514Z,7.29
2023-04-14T04:10:38.663Z,7.27
2023-04-14T04:13:09.242Z,7.25
2023-04-14T04:15:41.519Z,7.22
2023-04-14T04:18:11.593Z,7.21
2023-04-14T04:20:40.088Z,7.21
2023-04-14T04:23:08.659Z,7.20
2023-04-14T04:25:37.203Z,7.19
2023-04-14T04:28:25.828Z,7.17
2023-04-14T04:30:54.548Z,7.16
2023-04-14T04:33:23.379Z,7.16
2023-04-14T04:35:51.916Z,7.15
2023-04-14T04:38:21.005Z,7.14
2023-04-14T04:40:49.172Z,7.15
2023-04-14T04:43:21.421Z,7.16
2023-04-14T04:45:58.946Z,7.16
2023-04-14T04:48:32.619Z,7.17
2023-04-14T04:51:00.889Z,7.17
2023-04-14T04:53:29.169Z,7.18
2023-04-14T04:55:58.905Z,7.19
2023-04-14T04:58:27.059Z,7.21
2023-04-14T05:00:55.363Z,7.21
2023-04-14T05:03:26.659Z,7.23
2023-04-14T05:05:55.081Z,7.27
2023-04-14T05:08:23.548Z,7.28
2023-04-14T05:10:51.936Z,7.28
2023-04-14T05:13:22.706Z,7.29
2023-04-14T05:15:52.256Z,7.30
2023-04-14T05:18:21.560Z,7.31
2023-04-14T05:20:50.007Z,7.31
2023-04-14T05:23:18.527Z,7.32
2023-04-14T05:25:51.393Z,7.32
2023-04-14T05:28:23.889Z,7.34
2023-04-14T05:30:52.602Z,7.34
2023-04-14T05:33:21.981Z,7.36
2023-04-14T05:35:53.970Z,7.39
2023-04-14T05:38:22.198Z,7.41
2023-04-14T05:40:50.592Z,7.42
2023-04-14T05:43:20.254Z,7.44
2023-04-14T05:45:48.418Z,7.43
2023-04-14T05:48:17.641Z,7.43
2023-04-14T05:50:46.274Z,7.42
2023-04-14T05:53:15.452Z,7.43
2023-04-14T05:55:43.993Z,7.44
2023-04-14T05:58:12.780Z,7.45
2023-04-14T06:00:43.218Z,7.46
2023-04-14T06:03:31.090Z,7.45
2023-04-14T06:05:59.711Z,7.44
2023-04-14T06:08:28.257Z,7.44
2023-04-14T06:10:56.607Z,7.45
2023-04-14T06:13:24.767Z,7.43
2023-04-14T06:15:52.875Z,7.41
2023-04-14T06:18:23.149Z,7.39
2023-04-14T06:20:52.021Z,7.35
2023-04-14T06:23:21.936Z,7.34
2023-04-14T06:25:57.323Z,7.34
2023-04-14T06:28:26.527Z,7.35
2023-04-14T06:30:54.781Z,7.36
2023-04-14T06:33:23.076Z,7.37
2023-04-14T06:35:51.848Z,7.38
2023-04-14T06:38:20.810Z,7.39
2023-04-14T06:40:50.220Z,7.38
2023-04-14T06:43:20.524Z,7.38
2023-04-14T06:45:51.040Z,7.35
2023-04-14T06:48:19.479Z,7.35
2023-04-14T06:50:56.188Z,7.35
2023-04-14T06:53:26.221Z,7.38
2023-04-14T06:56:00.726Z,7.39
2023-04-14T06:58:31.196Z,7.41
2023-04-14T07:01:01.747Z,7.44
2023-04-14T07:03:34.556Z,7.47
2023-04-14T07:06:05.364Z,7.48
2023-04-14T07:08:35.192Z,7.46
2023-04-14T07:11:08.824Z,7.45
2023-04-14T07:13:37.598Z,7.45
2023-04-14T07:16:08.235Z,7.47
2023-04-14T07:18:36.593Z,7.51
2023-04-14T07:21:05.177Z,7.56
2023-04-14T07:23:34.591Z,7.61
2023-04-14T07:26:03.587Z,7.67
2023-04-14T07:28:32.599Z,7.70
2023-04-14T07:31:10.526Z,7.74
2023-04-14T07:33:39.984Z,7.76
2023-04-14T07:36:09.493Z,7.78
2023-04-14T07:38:37.821Z,7.78
2023-04-14T07:41:06.631Z,7.79
2023-04-14T07:43:37.537Z,7.82
2023-04-14T07:46:07.786Z,7.85
2023-04-14T07:48:36.502Z,7.88
2023-04-14T07:51:09.351Z,7.95
2023-04-14T07:53:43.399Z,8.02
2023-04-14T07:56:12.299Z,8.08
2023-04-14T07:58:40.460Z,8.14
2023-04-14T08:01:08.730Z,8.18
2023-04-14T08:03:38.042Z,8.25
2023-04-14T08:06:07.661Z,8.31
2023-04-14T08:08:37.056Z,8.34
2023-04-14T08:11:05.327Z,8.37
2023-04-14T08:13:33.801Z,8.41
2023-04-14T08:16:03.346Z,8.47
2023-04-14T08:18:32.713Z,8.51
2023-04-14T08:21:00.905Z,8.56
2023-04-14T08:23:34.413Z,8.61
2023-04-14T08:26:04.276Z,8.65
2023-04-14T08:28:32.442Z,8.69
2023-04-14T08:31:05.540Z,8.69
2023-04-14T08:33:34.712Z,8.71
2023-04-14T08:36:03.235Z,8.73
2023-04-14T08:38:36.780Z,8.74
2023-04-14T08:41:05.577Z,8.74
2023-04-14T08:43:33.843Z,8.73
2023-04-14T08:46:07.383Z,8.72
2023-04-14T08:48:36.631Z,8.72
2023-04-14T08:51:14.161Z,8.70
2023-04-14T08:53:46.017Z,8.69
2023-04-14T08:56:15.060Z,8.73
2023-04-14T08:58:43.380Z,8.79
2023-04-14T09:01:11.699Z,8.89
2023-04-14T09:03:41.775Z,9.01
2023-04-14T09:06:10.039Z,9.10
2023-04-14T09:08:39.422Z,9.22
2023-04-14T09:11:11.481Z,9.35
2023-04-14T09:13:39.733Z,9.46
2023-04-14T09:16:08.128Z,9.53
2023-04-14T09:18:37.796Z,9.57
2023-04-14T09:21:50.796Z,9.61
2023-04-14T09:23:56.773Z,9.60
2023-04-14T09:26:27.503Z,9.54
2023-04-14T09:28:55.932Z,9.49
2023-04-14T09:31:25.062Z,9.44
2023-04-14T09:33:53.410Z,9.43
2023-04-14T09:36:23.525Z,9.47
2023-04-14T09:38:52.018Z,9.49
2023-04-14T09:41:23.816Z,9.50
2023-04-14T09:43:52.950Z,9.49
2023-04-14T09:46:21.993Z,9.53
2023-04-14T09:48:50.198Z,9.56
2023-04-14T09:51:21.860Z,9.59
2023-04-14T09:53:52.964Z,9.61
2023-04-14T09:56:26.680Z,9.60
2023-04-14T09:58:58.340Z,9.61
2023-04-14T10:01:28.519Z,9.60
2023-04-14T10:03:57.744Z,9.59
2023-04-14T10:06:26.932Z,9.59
2023-04-14T10:08:55.776Z,9.58
2023-04-14T10:11:25.311Z,9.56
2023-04-14T10:13:55.830Z,9.55
2023-04-14T10:16:24.411Z,9.54
2023-04-14T10:18:53.659Z,9.55
2023-04-14T10:21:23.349Z,9.56
2023-04-14T10:23:52.397Z,9.56
2023-04-14T10:26:20.847Z,9.54
2023-04-14T10:28:51.425Z,9.51
2023-04-14T10:31:29.461Z,9.50
2023-04-14T10:33:57.687Z,9.50
2023-04-14T10:36:27.946Z,9.48
2023-04-14T10:39:01.161Z,9.47
2023-04-14T10:41:43.074Z,9.47
2023-04-14T10:44:35.026Z,9.48
2023-04-14T10:47:05.386Z,9.49
2023-04-14T10:49:35.390Z,9.49
2023-04-14T10:52:21.466Z,9.48
2023-04-14T10:55:17.238Z,9.49
2023-04-14T10:57:45.931Z,9.49
2023-04-14T11:00:20.037Z,9.51
2023-04-14T11:03:11.411Z,9.53
2023-04-14T11:05:48.257Z,9.54
2023-04-14T11:08:17.511Z,9.57
2023-04-14T11:10:51.478Z,9.61
2023-04-14T11:13:20.508Z,9.63
2023-04-14T11:16:04.362Z,9.65
2023-04-14T11:18:45.733Z,9.65
2023-04-14T11:21:29.883Z,9.65
2023-04-14T11:24:00.991Z,9.65
2023-04-14T11:26:29.427Z,9.66
2023-04-14T11:29:07.540Z,9.67
2023-04-14T11:31:37.004Z,9.71
2023-04-14T11:34:06.706Z,9.76
2023-04-14T11:36:39.381Z,9.78
2023-04-14T11:39:07.662Z,9.81
2023-04-14T11:44:21.508Z,9.92
2023-04-14T11:46:50.015Z,9.94
2023-04-14T11:49:19.696Z,9.96
2023-04-14T11:51:49.301Z,9.97
2023-04-14T11:54:18.695Z,10.00
2023-04-14T11:56:46.898Z,10.04
2023-04-14T11:59:15.059Z,10.09
2023-04-14T12:01:44.307Z,10.13
2023-04-14T12:04:14.045Z,10.13
2023-04-14T12:06:42.543Z,10.11
2023-04-14T12:09:11.624Z,10.08
2023-04-14T12:11:40.652Z,10.03
2023-04-14T12:14:08.881Z,10.03
2023-04-14T12:16:38.278Z,10.03
2023-04-14T12:19:07.873Z,10.06
2023-04-14T12:21:36.199Z,10.10
2023-04-14T12:24:04.584Z,10.13
2023-04-14T12:26:32.780Z,10.15
2023-04-14T12:29:02.429Z,10.17
2023-04-14T12:31:31.332Z,10.19
2023-04-14T12:34:02.037Z,10.18
2023-04-14T12:36:47.815Z,10.18
2023-04-14T12:39:22.402Z,10.17
2023-04-14T12:41:51.505Z,10.11
2023-04-14T12:44:24.611Z,10.09
2023-04-14T12:46:53.888Z,10.07
2023-04-14T12:49:38.391Z,10.02
2023-04-14T12:52:08.310Z,9.96
2023-04-14T12:54:51.850Z,9.92
2023-04-14T12:57:21.445Z,9.86
2023-04-14T12:59:50.571Z,9.82
2023-04-14T13:02:19.062Z,9.80
2023-04-14T13:04:47.445Z,9.81
2023-04-14T13:07:16.069Z,9.83
2023-04-14T13:09:44.331Z,9.84
2023-04-14T13:12:12.832Z,9.87
2023-04-14T13:14:41.853Z,9.93
2023-04-14T13:17:10.565Z,9.97
2023-04-14T13:19:38.964Z,9.99
2023-04-14T13:22:09.409Z,10.01
2023-04-14T13:24:37.926Z,10.01
2023-04-14T13:27:07.034Z,9.99
2023-04-14T13:29:41.151Z,9.97
2023-04-14T13:32:11.260Z,9.97
2023-04-14T13:34:40.123Z,9.96
2023-04-14T13:37:08.478Z,9.95
2023-04-14T13:39:36.971Z,9.94
2023-04-14T13:42:05.140Z,9.93
2023-04-14T13:44:34.478Z,9.95
2023-04-14T13:47:02.972Z,9.97
2023-04-14T13:49:31.911Z,9.97
2023-04-14T13:52:00.052Z,9.98
2023-04-14T13:54:28.445Z,9.99
2023-04-14T13:56:57.007Z,9.99
2023-04-14T13:59:25.421Z,9.95
2023-04-14T14:01:53.707Z,9.92
2023-04-14T14:04:23.381Z,9.88
2023-04-14T14:06:51.617Z,9.88
2023-04-14T14:09:19.744Z,9.88
2023-04-14T14:11:47.958Z,9.89
2023-04-14T14:14:16.208Z,9.90
2023-04-14T14:16:44.736Z,9.88
2023-04-14T14:19:17.217Z,9.84
2023-04-14T14:21:46.296Z,9.81
2023-04-14T14:24:14.582Z,9.78
2023-04-14T14:26:43.909Z,9.74
2023-04-14T14:29:12.141Z,9.68
2023-04-14T14:31:40.516Z,9.64
2023-04-14T14:34:09.707Z,9.61
2023-04-14T14:36:37.908Z,9.58
2023-04-14T14:39:09.497Z,9.56
2023-04-14T14:41:38.484Z,9.54
2023-04-14T14:44:07.344Z,9.52
2023-04-14T14:46:36.346Z,9.51
2023-04-14T14:49:05.663Z,9.51
2023-04-14T14:51:34.030Z,9.53
2023-04-14T14:54:10.354Z,9.54
2023-04-14T14:56:39.182Z,9.51
2023-04-14T14:59:08.631Z,9.49
2023-04-14T15:01:37.342Z,9.45
2023-04-14T15:04:06.766Z,9.42
2023-04-14T15:06:36.517Z,9.40
2023-04-14T15:09:05.701Z,9.37
2023-04-14T15:11:38.867Z,9.34
2023-04-14T15:14:07.403Z,9.31
2023-04-14T15:16:35.672Z,9.28
2023-04-14T15:19:04.395Z,9.26
2023-04-14T15:21:33.267Z,9.25
2023-04-14T15:24:02.165Z,9.25
2023-04-14T15:26:32.763Z,9.24
2023-04-14T15:29:02.494Z,9.23
2023-04-14T15:31:31.150Z,9.24
2023-04-14T15:34:02.433Z,9.24
2023-04-14T15:36:34.885Z,9.22
2023-04-14T15:39:03.093Z,9.20
2023-04-14T15:41:31.281Z,9.18
2023-04-14T15:44:01.065Z,9.17
2023-04-14T15:46:29.787Z,9.16
2023-04-14T15:49:03.634Z,9.15
2023-04-14T15:51:32.578Z,9.14
2023-04-14T15:54:01.172Z,9.10
2023-04-14T15:56:31.733Z,9.09
2023-04-14T15:59:00.778Z,9.08
2023-04-14T16:01:29.102Z,9.06
2023-04-14T16:03:58.235Z,9.03
2023-04-14T16:06:26.716Z,9.00
2023-04-14T16:08:55.014Z,9.00
2023-04-14T16:11:24.167Z,9.00
2023-04-14T16:13:56.971Z,9.00
2023-04-14T16:16:25.545Z,8.99
2023-04-14T16:18:53.996Z,8.98
2023-04-14T16:21:24.513Z,8.97
2023-04-14T16:23:53.098Z,8.97
2023-04-14T16:26:21.263Z,8.97
2023-04-14T16:28:52.782Z,8.95
2023-04-14T16:31:22.065Z,8.94
2023-04-14T16:33:50.588Z,8.93
2023-04-14T16:36:19.332Z,8.92
2023-04-14T16:38:49.276Z,8.91
2023-04-14T16:41:18.085Z,8.90
2023-04-14T16:43:46.149Z,8.88
2023-04-14T16:46:14.305Z,8.88
2023-04-14T16:48:42.587Z,8.87
2023-04-14T16:51:15.190Z,8.87
2023-04-14T16:53:45.586Z,8.87
2023-04-14T16:56:14.231Z,8.87
2023-04-14T16:58:45.444Z,8.86
2023-04-14T17:01:13.819Z,8.84
2023-04-14T17:03:42.901Z,8.83
2023-04-14T17:06:11.299Z,8.83
2023-04-14T17:08:41.728Z,8.81
2023-04-14T17:11:09.912Z,8.80
2023-04-14T17:13:38.537Z,8.80
2023-04-14T17:16:11.941Z,8.79
2023-04-14T17:18:41.707Z,8.77
2023-04-14T17:21:10.573Z,8.75
2023-04-14T17:23:41.048Z,8.73
2023-04-14T17:26:10.344Z,8.72
2023-04-14T17:28:40.111Z,8.71
2023-04-14T17:31:16.700Z,8.69
2023-04-14T17:33:45.395Z,8.67
2023-04-14T17:36:14.769Z,8.65
2023-04-14T17:38:46.124Z,8.64
2023-04-14T17:41:14.571Z,8.63
2023-04-14T17:43:43.869Z,8.62
2023-04-14T17:46:12.212Z,8.63
2023-04-14T17:48:40.639Z,8.60
2023-04-14T17:51:08.861Z,8.60
2023-04-14T17:53:37.684Z,8.60
2023-04-14T17:56:06.206Z,8.58
2023-04-14T17:58:35.675Z,8.57
2023-04-14T18:01:04.422Z,8.56
2023-04-14T18:03:33.298Z,8.55
2023-04-14T18:06:01.759Z,8.54
2023-04-14T18:08:32.267Z,8.51
2023-04-14T18:11:00.343Z,8.50
2023-04-14T18:13:30.029Z,8.48
2023-04-14T18:15:58.174Z,8.47
2023-04-14T18:18:29.171Z,8.46
2023-04-14T18:20:57.494Z,8.45
2023-04-14T18:23:25.597Z,8.44
2023-04-14T18:28:34.656Z,8.39
2023-04-14T18:31:03.979Z,8.38
2023-04-14T18:33:32.660Z,8.37
2023-04-14T18:36:02.501Z,8.36
2023-04-14T18:38:30.849Z,8.36
2023-04-14T18:41:03.301Z,8.34
2023-04-14T18:43:32.923Z,8.32
2023-04-14T18:46:01.406Z,8.30
2023-04-14T18:48:34.640Z,8.29
2023-04-14T18:51:06.979Z,8.28
2023-04-14T18:53:35.260Z,8.26
2023-04-14T18:56:03.886Z,8.24
2023-04-14T18:58:34.130Z,8.22
2023-04-14T19:01:02.849Z,8.20
2023-04-14T19:03:33.860Z,8.19
2023-04-14T19:06:02.074Z,8.16
2023-04-14T19:08:30.650Z,8.14
2023-04-14T19:11:05.625Z,8.13
2023-04-14T19:13:34.278Z,8.10
2023-04-14T19:16:06.521Z,8.08
2023-04-14T19:18:35.661Z,8.06
2023-04-14T19:21:04.980Z,8.05
2023-04-14T19:23:34.340Z,8.03
2023-04-14T19:26:02.841Z,8.01
2023-04-14T19:28:39.943Z,7.99
2023-04-14T19:31:08.360Z,7.97
2023-04-14T19:33:36.726Z,7.94
2023-04-14T19:36:17.308Z,7.90
2023-04-14T19:38:45.828Z,7.85
2023-04-14T19:41:14.873Z,7.83
2023-04-14T19:43:44.387Z,7.80
2023-04-14T19:46:13.516Z,7.77
2023-04-14T19:48:42.749Z,7.74
2023-04-14T19:51:11.474Z,7.71
2023-04-14T19:53:39.835Z,7.70
2023-04-14T19:56:08.844Z,7.69
2023-04-14T19:58:37.119Z,7.69
2023-04-14T20:01:06.223Z,7.69
2023-04-14T20:03:35.680Z,7.68
2023-04-14T20:06:04.538Z,7.69
2023-04-14T20:08:34.705Z,7.70
2023-04-14T20:11:05.079Z,7.70
2023-04-14T20:13:35.617Z,7.71
2023-04-14T20:16:09.615Z,7.72
2023-04-14T20:18:57.632Z,7.71
2023-04-14T20:21:26.252Z,7.73
2023-04-14T20:23:54.418Z,7.74
2023-04-14T20:26:23.310Z,7.75
2023-04-14T20:28:51.828Z,7.76
2023-04-14T20:31:20.092Z,7.78
2023-04-14T20:33:51.093Z,7.79
2023-04-14T20:36:19.476Z,7.80
2023-04-14T20:38:47.610Z,7.80
2023-04-14T20:41:19.942Z,7.80
2023-04-14T20:43:48.062Z,7.81
2023-04-14T20:46:16.353Z,7.83
2023-04-14T20:48:49.163Z,7.85
2023-04-14T20:51:19.350Z,7.85
2023-04-14T20:53:48.768Z,7.86
2023-04-14T20:56:20.457Z,7.88
2023-04-14T20:58:49.381Z,7.87
2023-04-14T21:01:17.538Z,7.87
2023-04-14T21:03:47.202Z,7.86
2023-04-14T21:06:16.236Z,7.85
2023-04-14T21:08:44.338Z,7.84
2023-04-14T21:11:16.719Z,7.83
2023-04-14T21:15:29.876Z,7.81
2023-04-14T21:16:37.301Z,7.80
2023-04-14T21:19:06.295Z,7.77
2023-04-14T21:21:43.798Z,7.74
2023-04-14T21:24:12.758Z,7.72
2023-04-14T21:26:41.095Z,7.71
2023-04-14T21:29:14.601Z,7.69
2023-04-14T21:31:42.907Z,7.68
2023-04-14T21:34:11.158Z,7.66
2023-04-14T21:36:39.682Z,7.64
2023-04-14T21:39:08.532Z,7.60
2023-04-14T21:41:36.660Z,7.59
2023-04-14T21:44:06.009Z,7.58
2023-04-14T21:46:34.521Z,7.57
2023-04-14T21:49:04.648Z,7.55
2023-04-14T21:51:33.062Z,7.52
2023-04-14T21:54:01.959Z,7.49
2023-04-14T21:56:31.557Z,7.47
2023-04-14T21:58:59.842Z,7.44
2023-04-14T22:01:30.096Z,7.42
2023-04-14T22:04:00.537Z,7.41
2023-04-14T22:06:29.549Z,7.39
2023-04-14T22:08:57.886Z,7.38
2023-04-14T22:11:27.171Z,7.36
2023-04-14T22:13:55.652Z,7.34
2023-04-14T22:16:28.815Z,7.31
2023-04-14T22:18:58.949Z,7.28
2023-04-14T22:21:27.203Z,7.27
2023-04-14T22:23:56.816Z,7.25
2023-04-14T22:26:27.609Z,7.24
2023-04-14T22:28:56.624Z,7.22
2023-04-14T22:31:27.816Z,7.21
2023-04-14T22:33:57.093Z,7.19
2023-04-14T22:36:25.306Z,7.19
2023-04-14T22:38:53.449Z,7.18
2023-04-14T22:41:22.748Z,7.16
2023-04-14T22:43:51.488Z,7.15
2023-04-14T22:46:24.613Z,7.12
2023-04-14T22:48:52.974Z,7.11
2023-04-14T22:51:21.614Z,7.09
2023-04-14T22:53:54.246Z,7.08
2023-04-14T22:56:25.356Z,7.07
2023-04-14T22:58:53.447Z,7.05
2023-04-14T23:01:24.593Z,7.05
2023-04-14T23:03:53.791Z,7.04
2023-04-14T23:06:23.013Z,7.01
2023-04-14T23:08:51.525Z,6.99
2023-04-14T23:11:20.884Z,6.97
2023-04-14T23:13:49.783Z,6.93
2023-04-14T23:16:22.476Z,6.91
2023-04-14T23:18:53.970Z,6.90
2023-04-14T23:21:22.763Z,6.88
2023-04-14T23:23:51.864Z,6.88
2023-04-14T23:26:27.232Z,6.87
2023-04-14T23:28:55.361Z,6.86
2023-04-14T23:31:23.509Z,6.84
2023-04-14T23:33:52.995Z,6.82
2023-04-14T23:36:21.785Z,6.83
2023-04-14T23:38:50.021Z,6.82
2023-04-14T23:41:19.942Z,6.80
2023-04-14T23:43:49.744Z,6.79
2023-04-14T23:46:17.879Z,6.76
2023-04-14T23:48:54.173Z,6.75
2023-04-14T23:51:24.894Z,6.74
2023-04-14T23:53:53.321Z,6.73
2023-04-14T23:56:24.432Z,6.71
2023-04-14T23:58:53.317Z,6.70
